createdAt,value
2019-02-15T00:00:39.904Z,88.78
2019-02-15T00:03:10.851Z,86.20
2019-02-15T00:05:41.398Z,73.80
2019-02-15T00:08:13.366Z,71.00
2019-02-15T00:10:43.790Z,86.87
2019-02-15T00:13:14.478Z,80.33
2019-02-15T00:15:46.678Z,75.67
2019-02-15T00:18:30.355Z,75.35
2019-02-15T00:21:35.159Z,80.47
2019-02-15T00:24:05.677Z,77.40
2019-02-15T00:26:38.884Z,74.63
2019-02-15T00:29:09.722Z,77.90
2019-02-15T00:31:41.577Z,65.37
2019-02-15T00:34:12.274Z,74.77
2019-02-15T00:36:42.631Z,62.50
2019-02-15T00:39:13.515Z,57.67
2019-02-15T00:41:44.084Z,43.87
2019-02-15T00:44:14.961Z,51.47
2019-02-15T00:47:09.091Z,38.43
2019-02-15T00:49:58.602Z,38.23
2019-02-15T00:52:53.190Z,36.87
2019-02-15T00:55:38.362Z,37.90
2019-02-15T00:58:33.907Z,34.20
2019-02-15T01:01:16.180Z,27.93
2019-02-15T01:04:15.153Z,38.77
2019-02-15T01:07:07.313Z,42.73
2019-02-15T01:10:02.816Z,31.50
2019-02-15T01:12:42.330Z,26.80
2019-02-15T01:15:13.386Z,37.70
2019-02-15T01:17:43.856Z,43.13
2019-02-15T01:20:14.313Z,39.13
2019-02-15T01:22:46.109Z,39.03
2019-02-15T01:25:16.755Z,53.17
2019-02-15T01:27:56.080Z,50.83
2019-02-15T01:30:44.352Z,48.47
2019-02-15T01:33:32.752Z,57.50
2019-02-15T01:36:22.414Z,68.90
2019-02-15T01:39:08.999Z,61.87
2019-02-15T01:41:58.484Z,67.37
2019-02-15T01:44:59.803Z,65.83
2019-02-15T01:47:37.558Z,66.00
2019-02-15T01:50:08.350Z,57.77
2019-02-15T01:52:40.346Z,65.13
2019-02-15T01:55:12.134Z,58.85
2019-02-15T01:57:42.924Z,64.90
2019-02-15T02:00:16.013Z,53.73
2019-02-15T02:02:46.607Z,60.07
2019-02-15T02:05:17.007Z,57.33
2019-02-15T02:07:47.856Z,52.27
2019-02-15T02:10:18.244Z,56.43
2019-02-15T02:12:48.737Z,53.53
2019-02-15T02:15:19.351Z,47.85
2019-02-15T02:17:50.135Z,59.80
2019-02-15T02:20:20.777Z,56.73
2019-02-15T02:22:51.774Z,54.87
2019-02-15T02:25:22.373Z,47.70
2019-02-15T02:27:54.560Z,52.57
2019-02-15T02:30:25.307Z,45.03
2019-02-15T02:32:56.532Z,54.43
2019-02-15T02:35:27.077Z,51.23
2019-02-15T02:37:58.685Z,57.60
2019-02-15T02:40:30.911Z,56.20
2019-02-15T02:43:01.605Z,58.60
2019-02-15T02:45:32.562Z,51.17
2019-02-15T02:48:02.987Z,57.10
2019-02-15T02:50:33.634Z,55.37
2019-02-15T02:53:04.674Z,56.07
2019-02-15T02:55:35.394Z,53.83
2019-02-15T02:58:06.442Z,51.90
2019-02-15T03:00:37.229Z,53.43
2019-02-15T03:03:07.767Z,57.30
2019-02-15T03:05:38.247Z,56.50
2019-02-15T03:08:09.112Z,60.80
2019-02-15T03:10:40.494Z,65.62
2019-02-15T03:13:11.127Z,59.23
2019-02-15T03:15:41.906Z,65.63
2019-02-15T03:18:12.302Z,73.53
2019-02-15T03:20:42.687Z,71.53
2019-02-15T03:23:13.919Z,61.73
2019-02-15T03:25:44.483Z,76.63
2019-02-15T03:28:17.641Z,83.40
2019-02-15T03:30:48.282Z,80.87
2019-02-15T03:33:18.835Z,63.40
2019-02-15T03:36:00.095Z,78.33
2019-02-15T03:38:57.324Z,67.63
2019-02-15T03:41:32.705Z,69.00
2019-02-15T03:44:03.087Z,60.03
2019-02-15T03:46:33.745Z,59.95
2019-02-15T03:49:04.805Z,47.67
2019-02-15T03:51:35.240Z,40.40
2019-02-15T03:54:05.776Z,34.10
2019-02-15T03:56:37.634Z,40.33
2019-02-15T03:59:10.010Z,37.33
2019-02-15T04:01:43.477Z,39.93
2019-02-15T04:04:14.651Z,40.70
2019-02-15T04:06:47.482Z,44.33
2019-02-15T04:09:18.249Z,46.85
2019-02-15T04:11:48.759Z,49.63
2019-02-15T04:14:19.098Z,43.57
2019-02-15T04:16:49.887Z,44.97
2019-02-15T04:19:22.041Z,47.50
2019-02-15T04:21:52.468Z,47.87
2019-02-15T04:24:23.143Z,51.70
2019-02-15T04:26:53.792Z,54.83
2019-02-15T04:29:24.436Z,49.93
2019-02-15T04:31:55.141Z,52.37
2019-02-15T04:34:25.782Z,50.30
2019-02-15T04:36:56.660Z,53.00
2019-02-15T04:39:27.829Z,57.57
2019-02-15T04:41:58.267Z,59.97
2019-02-15T04:44:28.935Z,62.87
2019-02-15T04:46:59.393Z,58.97
2019-02-15T04:49:29.872Z,57.97
2019-02-15T04:52:00.485Z,50.03
2019-02-15T04:54:31.329Z,53.20
2019-02-15T04:57:02.119Z,44.80
2019-02-15T04:59:32.997Z,40.13
2019-02-15T05:02:03.824Z,37.63
2019-02-15T05:04:34.712Z,40.20
2019-02-15T05:07:06.020Z,48.13
2019-02-15T05:09:37.221Z,48.70
2019-02-15T05:12:07.902Z,36.03
2019-02-15T05:14:38.445Z,33.07
2019-02-15T05:17:09.289Z,26.13
2019-02-15T05:19:40.071Z,28.13
2019-02-15T05:22:10.748Z,29.02
2019-02-15T05:24:41.642Z,29.40
2019-02-15T05:27:12.240Z,41.63
2019-02-15T05:29:42.659Z,30.13
2019-02-15T05:32:13.224Z,37.30
2019-02-15T05:34:43.753Z,40.67
2019-02-15T05:37:14.511Z,39.30
2019-02-15T05:39:44.936Z,30.77
2019-02-15T05:42:15.418Z,29.50
2019-02-15T05:44:46.508Z,29.53
2019-02-15T05:47:17.921Z,26.37
2019-02-15T05:49:48.530Z,28.17
2019-02-15T05:52:19.012Z,19.35
2019-02-15T05:54:50.561Z,27.80
2019-02-15T05:57:21.543Z,26.48
2019-02-15T05:59:52.185Z,32.00
2019-02-15T06:02:22.914Z,27.70
2019-02-15T06:04:53.658Z,24.90
2019-02-15T06:07:24.174Z,27.40
2019-02-15T06:09:54.894Z,24.77
2019-02-15T06:12:25.366Z,26.47
2019-02-15T06:14:55.830Z,30.77
2019-02-15T06:17:27.370Z,31.20
2019-02-15T06:19:58.151Z,27.33
2019-02-15T06:22:28.653Z,30.23
2019-02-15T06:24:59.220Z,29.47
2019-02-15T06:27:29.737Z,26.47
2019-02-15T06:30:00.740Z,30.63
2019-02-15T06:32:31.574Z,29.00
2019-02-15T06:35:02.173Z,30.57
2019-02-15T06:37:32.723Z,27.17
2019-02-15T06:40:03.413Z,24.40
2019-02-15T06:42:33.779Z,22.83
2019-02-15T06:45:04.259Z,20.83
2019-02-15T06:47:34.805Z,21.52
2019-02-15T06:50:06.132Z,24.50
2019-02-15T06:52:36.669Z,20.17
2019-02-15T06:55:08.291Z,21.60
2019-02-15T06:57:38.841Z,19.30
2019-02-15T07:00:32.073Z,24.60
2019-02-15T07:03:18.231Z,23.83
2019-02-15T07:05:48.854Z,21.70
2019-02-15T07:08:19.258Z,25.60
2019-02-15T07:10:49.756Z,27.13
2019-02-15T07:13:20.128Z,27.40
2019-02-15T07:15:51.730Z,26.87
2019-02-15T07:18:22.121Z,27.83
2019-02-15T07:20:52.817Z,22.93
2019-02-15T07:23:26.077Z,25.72
2019-02-15T07:25:57.893Z,25.47
2019-02-15T07:42:15.437Z,22.77
2019-02-15T07:44:49.296Z,21.45
2019-02-15T07:47:22.392Z,10.85
2019-02-15T07:49:57.150Z,16.53
2019-02-15T07:52:29.868Z,17.00
2019-02-15T07:55:02.078Z,15.40
2019-02-15T07:57:34.053Z,21.33
2019-02-15T08:00:10.161Z,21.43
2019-02-15T08:02:42.583Z,19.53
2019-02-15T08:05:14.837Z,18.83
2019-02-15T08:07:46.985Z,20.40
2019-02-15T08:10:19.081Z,20.32
2019-02-15T08:12:51.279Z,10.17
2019-02-15T08:15:23.583Z,17.55
2019-02-15T08:17:55.634Z,15.87
2019-02-15T08:20:27.779Z,9.53
2019-02-15T08:23:00.072Z,10.83
2019-02-15T08:25:32.124Z,4.73
2019-02-15T08:28:04.102Z,7.70
2019-02-15T08:30:36.888Z,9.73
2019-02-15T08:33:09.089Z,7.60
2019-02-15T08:35:41.183Z,6.53
2019-02-15T08:38:13.163Z,9.93
2019-02-15T08:40:45.365Z,13.40
2019-02-15T08:43:17.630Z,12.45
2019-02-15T08:45:49.895Z,11.28
2019-02-15T08:48:23.611Z,13.22
2019-02-15T08:50:55.585Z,14.80
2019-02-15T08:53:27.638Z,17.70
2019-02-15T08:55:59.971Z,18.07
2019-02-15T08:58:32.060Z,15.63
2019-02-15T09:01:05.243Z,14.37
2019-02-15T09:03:37.635Z,12.40
2019-02-15T09:06:09.777Z,18.17
2019-02-15T09:08:41.940Z,17.57
2019-02-15T09:11:14.030Z,19.37
2019-02-15T09:13:47.472Z,17.50
2019-02-15T09:16:19.517Z,18.80
2019-02-15T09:18:52.060Z,17.57
2019-02-15T09:21:24.160Z,18.67
2019-02-15T09:23:56.207Z,19.90
2019-02-15T09:26:29.836Z,19.97
2019-02-15T09:29:05.782Z,18.83
2019-02-15T09:31:37.908Z,18.93
2019-02-15T09:34:10.048Z,17.23
2019-02-15T09:36:42.201Z,17.17
2019-02-15T09:39:14.187Z,16.40
2019-02-15T09:41:48.667Z,17.37
2019-02-15T09:44:20.656Z,17.75
2019-02-15T09:46:52.894Z,18.10
2019-02-15T09:49:24.879Z,17.87
2019-02-15T09:51:57.831Z,18.15
2019-02-15T09:54:29.818Z,26.67
2019-02-15T09:57:01.951Z,21.10
2019-02-15T09:59:33.971Z,20.63
2019-02-15T10:02:06.000Z,17.90
2019-02-15T10:04:38.076Z,21.23
2019-02-15T10:07:10.326Z,20.07
2019-02-15T10:09:42.534Z,26.93
2019-02-15T10:12:14.572Z,24.52
2019-02-15T10:14:46.542Z,20.87
2019-02-15T10:17:18.848Z,17.30
2019-02-15T10:19:50.899Z,20.68
2019-02-15T10:22:22.895Z,22.35
2019-02-15T10:24:55.002Z,23.55
2019-02-15T10:27:27.443Z,21.83
2019-02-15T10:29:59.962Z,21.73
2019-02-15T10:32:32.710Z,17.47
2019-02-15T10:35:06.632Z,18.65
2019-02-15T12:44:38.588Z,19.80
2019-02-15T12:47:15.120Z,21.90
2019-02-15T12:49:41.805Z,21.33
2019-02-15T12:52:12.776Z,23.00
2019-02-15T12:54:45.002Z,20.63
2019-02-15T12:57:15.671Z,26.23
2019-02-15T12:59:46.654Z,22.43
2019-02-15T13:02:19.606Z,22.42
2019-02-15T13:04:50.037Z,23.63
2019-02-15T13:07:22.083Z,20.97
2019-02-15T13:09:52.860Z,19.80
2019-02-15T13:12:23.412Z,18.98
2019-02-15T13:14:54.132Z,18.07
2019-02-15T13:17:25.210Z,23.10
2019-02-15T13:19:56.079Z,23.73
2019-02-15T13:22:26.543Z,23.83
2019-02-15T13:24:57.095Z,21.77
2019-02-15T13:27:27.729Z,23.13
2019-02-15T13:29:58.524Z,20.50
2019-02-15T13:32:30.130Z,24.37
2019-02-15T13:35:00.882Z,23.90
2019-02-15T13:37:31.289Z,24.80
2019-02-15T13:40:01.790Z,25.10
2019-02-15T13:42:32.215Z,27.23
2019-02-15T13:45:03.285Z,28.90
2019-02-15T13:47:34.992Z,24.53
2019-02-15T13:50:06.472Z,23.40
2019-02-15T13:52:37.076Z,24.27
2019-02-15T13:55:07.706Z,26.73
2019-02-15T13:57:37.992Z,23.20
2019-02-15T14:00:09.706Z,21.80
2019-02-15T14:02:40.344Z,24.47
2019-02-15T14:05:11.403Z,25.17
2019-02-15T14:07:41.913Z,21.65
2019-02-15T14:10:12.548Z,29.55
2019-02-15T14:12:45.850Z,22.60
2019-02-15T14:15:16.307Z,25.62
2019-02-15T14:17:48.715Z,23.47
2019-02-15T14:20:20.043Z,25.40
2019-02-15T14:22:50.727Z,25.07
2019-02-15T14:25:22.537Z,21.77
2019-02-15T14:27:53.039Z,24.53
2019-02-15T14:30:23.769Z,28.55
2019-02-15T14:32:54.554Z,26.03
2019-02-15T14:35:26.283Z,28.57
2019-02-15T14:37:58.592Z,31.17
2019-02-15T14:40:29.009Z,31.50
2019-02-15T14:43:00.097Z,33.23
2019-02-15T14:45:31.219Z,31.90
2019-02-15T14:48:02.833Z,32.63
2019-02-15T14:50:33.404Z,32.10
2019-02-15T14:53:05.162Z,34.15
2019-02-15T14:55:36.014Z,31.97
2019-02-15T14:58:06.630Z,31.43
2019-02-15T15:00:37.586Z,33.90
2019-02-15T15:03:08.461Z,34.50
2019-02-15T15:05:39.956Z,33.63
2019-02-15T15:08:10.699Z,30.77
2019-02-15T15:10:41.407Z,31.90
2019-02-15T15:13:11.770Z,29.67
2019-02-15T15:15:44.076Z,30.80
2019-02-15T15:18:15.742Z,31.20
2019-02-15T15:20:46.376Z,30.23
2019-02-15T15:23:18.716Z,33.15
2019-02-15T15:25:49.061Z,30.63
2019-02-15T15:28:21.200Z,34.67
2019-02-15T15:30:53.366Z,37.47
2019-02-15T15:33:23.862Z,33.60
2019-02-15T15:35:54.240Z,33.93
2019-02-15T15:38:24.607Z,34.93
2019-02-15T15:40:55.171Z,31.20
2019-02-15T15:43:27.580Z,36.27
2019-02-15T15:45:58.146Z,37.83
2019-02-15T15:48:30.294Z,38.93
2019-02-15T15:51:01.020Z,33.73
2019-02-15T15:53:32.838Z,36.00
2019-02-15T15:56:03.561Z,36.80
2019-02-15T15:58:34.023Z,37.10
2019-02-15T16:01:04.923Z,38.27
2019-02-15T16:03:35.426Z,38.80
2019-02-15T16:06:06.106Z,34.70
2019-02-15T16:08:36.595Z,39.17
2019-02-15T16:11:07.631Z,34.03
2019-02-15T16:13:38.152Z,41.07
2019-02-15T16:16:08.689Z,41.87
2019-02-15T16:18:39.157Z,37.27
2019-02-15T16:21:10.536Z,38.37
2019-02-15T16:23:40.899Z,48.37
2019-02-15T16:26:11.422Z,38.17
2019-02-15T16:28:41.856Z,36.47
2019-02-15T16:31:12.567Z,40.47
2019-02-15T16:33:43.011Z,41.47
2019-02-15T16:36:13.363Z,40.83
2019-02-15T16:38:43.893Z,40.07
2019-02-15T16:41:14.497Z,40.48
2019-02-15T16:43:44.927Z,42.40
2019-02-15T16:46:15.628Z,39.97
2019-02-15T16:48:46.216Z,44.20
2019-02-15T16:51:18.267Z,43.33
2019-02-15T16:53:48.785Z,43.67
2019-02-15T16:56:19.269Z,44.83
2019-02-15T16:58:49.874Z,44.30
2019-02-15T17:01:23.098Z,48.03
2019-02-15T17:03:53.804Z,49.80
2019-02-15T17:06:26.949Z,41.70
2019-02-15T17:08:58.357Z,49.23
2019-02-15T17:11:29.196Z,47.87
2019-02-15T17:13:59.984Z,50.73
2019-02-15T17:16:31.093Z,49.53
2019-02-15T17:19:03.794Z,48.60
2019-02-15T17:21:34.466Z,52.30
2019-02-15T17:24:06.135Z,52.70
2019-02-15T17:26:37.449Z,58.37
2019-02-15T17:29:07.927Z,61.90
2019-02-15T17:31:38.387Z,57.47
2019-02-15T17:34:08.892Z,59.13
2019-02-15T17:36:39.432Z,63.23
2019-02-15T17:39:10.140Z,64.67
2019-02-15T17:41:40.491Z,63.27
2019-02-15T17:44:11.550Z,66.20
2019-02-15T17:46:43.367Z,63.47
2019-02-15T17:49:13.853Z,59.25
2019-02-15T17:51:44.562Z,60.37
2019-02-15T17:54:15.035Z,58.10
2019-02-15T17:56:45.982Z,65.00
2019-02-15T17:59:16.532Z,64.10
2019-02-15T18:01:47.159Z,65.17
2019-02-15T18:04:17.567Z,66.77
2019-02-15T18:06:48.171Z,61.83
2019-02-15T18:09:19.305Z,64.58
2019-02-15T18:11:50.093Z,68.53
2019-02-15T18:14:22.880Z,65.10
2019-02-15T18:16:53.780Z,64.57
2019-02-15T18:19:24.314Z,67.93
2019-02-15T18:21:54.661Z,70.60
2019-02-15T18:24:24.993Z,73.23
2019-02-15T18:26:55.455Z,73.00
2019-02-15T18:29:25.991Z,71.07
2019-02-15T18:31:56.482Z,71.60
2019-02-15T18:34:27.591Z,77.77
2019-02-15T18:36:58.064Z,77.20
2019-02-15T18:39:30.474Z,82.13
2019-02-15T18:42:00.997Z,79.50
2019-02-15T18:44:33.977Z,81.80
2019-02-15T18:47:05.072Z,80.20
2019-02-15T18:49:35.687Z,80.77
2019-02-15T18:52:06.050Z,84.53
2019-02-15T18:54:37.016Z,85.83
2019-02-15T18:57:07.417Z,88.13
2019-02-15T18:59:37.989Z,82.30
2019-02-15T19:02:08.731Z,86.00
2019-02-15T19:04:39.438Z,94.67
2019-02-15T19:07:10.179Z,89.85
2019-02-15T19:09:40.951Z,87.03
2019-02-15T19:12:11.567Z,87.80
2019-02-15T19:14:41.843Z,90.70
2019-02-15T19:17:12.422Z,96.70
2019-02-15T19:19:42.761Z,95.80
2019-02-15T19:22:13.231Z,94.13
2019-02-15T19:24:43.753Z,101.70
2019-02-15T19:27:14.323Z,92.60
2019-02-15T19:29:45.007Z,105.05
2019-02-15T19:32:16.496Z,97.53
2019-02-15T19:34:47.554Z,100.90
2019-02-15T19:37:22.071Z,96.50
2019-02-15T19:39:52.359Z,103.33
2019-02-15T19:42:23.747Z,94.00
2019-02-15T19:44:54.606Z,97.57
2019-02-15T19:47:25.573Z,100.13
2019-02-15T19:49:56.038Z,100.80
2019-02-15T19:52:26.644Z,111.10
2019-02-15T19:54:57.236Z,102.00
2019-02-15T19:57:28.315Z,107.37
2019-02-15T20:00:01.267Z,109.63
2019-02-15T20:02:32.871Z,105.70
2019-02-15T20:05:03.699Z,104.20
2019-02-15T20:07:35.885Z,107.27
2019-02-15T20:10:08.381Z,103.90
2019-02-15T20:12:38.992Z,105.60
2019-02-15T20:15:10.828Z,104.67
2019-02-15T20:17:41.555Z,100.47
2019-02-15T20:20:13.017Z,103.57
2019-02-15T20:22:43.953Z,99.00
2019-02-15T20:25:14.665Z,103.50
2019-02-15T20:27:45.303Z,106.20
2019-02-15T20:30:18.265Z,103.07
2019-02-15T20:32:49.263Z,99.25
2019-02-15T20:35:20.128Z,103.62
2019-02-15T20:37:51.035Z,106.17
2019-02-15T20:40:22.819Z,107.92
2019-02-15T20:42:53.714Z,107.27
2019-02-15T20:45:24.317Z,108.03
2019-02-15T20:47:55.142Z,107.67
2019-02-15T20:50:26.478Z,109.10
2019-02-15T20:52:57.320Z,112.83
2019-02-15T20:55:27.870Z,109.50
2019-02-15T20:57:58.620Z,111.10
2019-02-15T21:00:29.815Z,116.37
2019-02-15T21:03:01.729Z,112.10
2019-02-15T21:05:32.512Z,109.17
2019-02-15T21:08:03.175Z,117.63
2019-02-15T21:10:33.672Z,110.87
2019-02-15T21:13:04.358Z,116.93
2019-02-15T21:15:35.522Z,113.97
2019-02-15T21:18:06.043Z,115.95
2019-02-15T21:20:38.301Z,112.53
2019-02-15T21:23:09.037Z,109.53
2019-02-15T21:25:40.542Z,109.50
2019-02-15T21:28:11.565Z,109.75
2019-02-15T21:30:42.400Z,106.20
2019-02-15T21:33:13.206Z,105.17
2019-02-15T21:35:43.838Z,106.27
2019-02-15T21:38:14.433Z,108.32
2019-02-15T21:40:45.023Z,103.87
2019-02-15T21:43:16.381Z,100.77
2019-02-15T21:45:46.708Z,103.50
2019-02-15T21:48:17.678Z,102.90
2019-02-15T21:50:49.277Z,93.00
2019-02-15T21:53:20.558Z,89.00
2019-02-15T21:55:52.000Z,92.83
2019-02-15T21:58:22.405Z,89.05
2019-02-15T22:00:53.293Z,85.77
2019-02-15T22:03:23.767Z,89.00
2019-02-15T22:05:55.804Z,84.87
2019-02-15T22:08:26.462Z,77.20
2019-02-15T22:10:56.948Z,82.67
2019-02-15T22:13:27.364Z,83.07
2019-02-15T22:15:58.256Z,84.97
2019-02-15T22:18:30.211Z,88.82
2019-02-15T22:21:00.956Z,85.40
2019-02-15T22:23:31.457Z,85.63
2019-02-15T22:26:02.121Z,86.53
2019-02-15T22:28:32.470Z,84.53
2019-02-15T22:31:03.352Z,85.95
2019-02-15T22:33:34.790Z,91.10
2019-02-15T22:36:06.013Z,86.60
2019-02-15T22:38:36.785Z,93.20
2019-02-15T22:41:17.767Z,91.30
2019-02-15T22:43:50.389Z,92.87
2019-02-15T22:46:22.558Z,87.45
2019-02-15T22:48:53.064Z,85.50
2019-02-15T22:51:23.610Z,96.40
2019-02-15T22:53:54.197Z,91.97
2019-02-15T22:56:24.783Z,93.90
2019-02-15T22:58:55.291Z,93.00
2019-02-15T23:01:27.615Z,93.03
2019-02-15T23:03:58.503Z,97.63
2019-02-15T23:06:30.863Z,89.47
2019-02-15T23:09:01.356Z,88.77
2019-02-15T23:11:33.488Z,98.10
2019-02-15T23:14:03.946Z,92.10
2019-02-15T23:16:34.434Z,91.03
2019-02-15T23:19:05.820Z,94.20
2019-02-15T23:21:36.258Z,96.17
2019-02-15T23:24:06.791Z,97.82
2019-02-15T23:26:37.756Z,97.33
2019-02-15T23:29:08.250Z,94.70
2019-02-15T23:31:39.068Z,100.47
2019-02-15T23:34:09.454Z,103.97
2019-02-15T23:36:40.696Z,103.20
2019-02-15T23:39:11.057Z,103.17
2019-02-15T23:41:41.545Z,102.60
2019-02-15T23:44:12.299Z,105.10
2019-02-15T23:46:42.738Z,101.83
2019-02-15T23:49:13.276Z,98.35
2019-02-15T23:51:45.244Z,96.50
2019-02-15T23:54:15.927Z,97.73
2019-02-15T23:56:46.448Z,99.67
2019-02-15T23:59:16.974Z,100.80
